Time,TemperatureF,DewpointF,PressureIn,WindDirection,WindDirectionDegrees,WindSpeedMPH,WindSpeedGustMPH,Humidity,HourlyPrecipIn,Conditions,Clouds,dailyrainin,SoftwareType,DateUTC
2013-05-02 00:00:00,46.3,36.7,30.29,North,351,8.0,14.0,69,0.00,,---,0.00,VWS V14.01,2013-05-02 04:00:00,
2013-05-02 00:01:00,44.0,35.9,30.30,North,356,5.0,9.0,73,0.00,,---,0.00,VWS V14.01,2013-05-02 04:01:00,
2013-05-02 00:02:00,44.0,35.9,30.30,NNW,348,3.0,9.0,73,0.00,,---,0.00,VWS V14.01,2013-05-02 04:02:00,
2013-05-02 00:03:00,43.9,35.8,30.30,NNW,344,7.0,9.0,73,0.00,,---,0.00,VWS V14.01,2013-05-02 04:03:00,
2013-05-02 00:08:00,43.7,35.6,30.30,North,349,10.0,14.0,73,0.00,,---,0.00,VWS V14.01,2013-05-02 04:08:00,
2013-05-02 00:10:00,45.8,36.6,30.30,North,358,7.0,13.0,70,0.00,,---,0.00,VWS V14.01,2013-05-02 04:10:00,
2013-05-02 00:13:00,43.6,35.9,30.30,North,352,6.0,9.0,74,0.00,,---,0.00,VWS V14.01,2013-05-02 04:13:00,
2013-05-02 00:18:00,43.6,35.9,30.30,NNW,337,5.0,9.0,74,0.00,,---,0.00,VWS V14.01,2013-05-02 04:18:00,
2013-05-02 00:20:00,45.4,36.2,30.30,NNW,347,11.0,13.0,70,0.00,,---,0.00,VWS V14.01,2013-05-02 04:20:00,
2013-05-02 00:23:00,43.5,35.8,30.30,NNW,342,7.0,10.0,74,0.00,,---,0.00,VWS V14.01,2013-05-02 04:23:00,
2013-05-02 00:28:00,43.4,35.7,30.30,North,5,4.0,12.0,74,0.00,,---,0.00,VWS V14.01,2013-05-02 04:28:00,
2013-05-02 00:30:00,44.9,36.1,30.29,NNE,12,8.0,13.0,71,0.00,,---,0.00,VWS V14.01,2013-05-02 04:30:00,
2013-05-02 00:33:00,43.5,35.8,30.30,North,0,2.0,11.0,74,0.00,,---,0.00,VWS V14.01,2013-05-02 04:33:00,
2013-05-02 00:38:00,43.3,35.6,30.30,NNW,342,3.0,12.0,74,0.00,,---,0.00,VWS V14.01,2013-05-02 04:38:00,
2013-05-02 00:40:00,44.5,35.7,30.30,North,358,9.0,13.0,71,0.00,,---,0.00,VWS V14.01,2013-05-02 04:40:00,
2013-05-02 00:43:00,43.3,35.9,30.30,North,352,7.0,11.0,75,0.00,,---,0.00,VWS V14.01,2013-05-02 04:43:00,
2013-05-02 00:48:00,43.3,35.6,30.30,NNE,24,9.0,11.0,74,0.00,,---,0.00,VWS V14.01,2013-05-02 04:48:00,
2013-05-02 00:50:00,44.3,35.9,30.29,North,3,9.0,11.0,72,0.00,,---,0.00,VWS V14.01,2013-05-02 04:50:00,
2013-05-02 00:53:00,43.2,35.5,30.30,NNW,333,2.0,8.0,74,0.00,,---,0.00,VWS V14.01,2013-05-02 04:53:00,
2013-05-02 00:58:00,43.2,35.5,30.30,North,353,4.0,8.0,74,0.00,,---,0.00,VWS V14.01,2013-05-02 04:58:00,
2013-05-02 01:00:00,44.0,35.6,30.30,NNW,341,5.0,10.0,72,0.00,,---,0.00,VWS V14.01,2013-05-02 05:00:00,
2013-05-02 01:03:00,43.2,35.8,30.31,North,353,6.0,7.0,75,0.00,,---,0.00,VWS V14.01,2013-05-02 05:03:00,
2013-05-02 01:08:00,43.0,35.6,30.31,North,352,7.0,9.0,75,0.00,,---,0.00,VWS V14.01,2013-05-02 05:08:00,
2013-05-02 01:10:00,43.7,36.0,30.30,NNW,342,4.0,14.0,74,0.00,,---,0.00,VWS V14.01,2013-05-02 05:10:00,
2013-05-02 01:13:00,42.9,35.5,30.31,NNW,339,6.0,7.0,75,0.00,,---,0.00,VWS V14.01,2013-05-02 05:13:00,
2013-05-02 01:18:00,42.9,35.5,30.31,North,358,5.0,11.0,75,0.00,,---,0.00,VWS V14.01,2013-05-02 05:18:00,
2013-05-02 01:20:00,43.6,35.9,30.30,North,349,6.0,10.0,74,0.00,,---,0.00,VWS V14.01,2013-05-02 05:20:00,
2013-05-02 01:23:00,42.7,35.7,30.31,North,359,9.0,10.0,76,0.00,,---,0.00,VWS V14.01,2013-05-02 05:23:00,
2013-05-02 01:28:00,42.6,35.6,30.31,North,349,3.0,11.0,76,0.00,,---,0.00,VWS V14.01,2013-05-02 05:28:00,
2013-05-02 01:30:00,43.5,35.8,30.30,North,5,9.0,12.0,74,0.00,,---,0.00,VWS V14.01,2013-05-02 05:30:00,
2013-05-02 01:33:00,42.5,35.5,30.31,North,350,7.0,8.0,76,0.00,,---,0.00,VWS V14.01,2013-05-02 05:33:00,
2013-05-02 01:38:00,42.3,35.6,30.30,NNW,340,5.0,9.0,77,0.00,,---,0.00,VWS V14.01,2013-05-02 05:38:00,
2013-05-02 01:40:00,43.3,35.6,30.30,NNW,338,6.0,12.0,74,0.00,,---,0.00,VWS V14.01,2013-05-02 05:40:00,
2013-05-02 01:43:00,42.2,35.5,30.30,North,351,5.0,7.0,77,0.00,,---,0.00,VWS V14.01,2013-05-02 05:43:00,
2013-05-02 01:48:00,42.0,35.3,30.30,NW,321,4.0,11.0,77,0.00,,---,0.00,VWS V14.01,2013-05-02 05:48:00,
2013-05-02 01:50:00,43.3,35.6,30.30,NNW,341,6.0,11.0,74,0.00,,---,0.00,VWS V14.01,2013-05-02 05:50:00,
2013-05-02 01:53:00,42.0,35.3,30.30,North,358,3.0,7.0,77,0.00,,---,0.00,VWS V14.01,2013-05-02 05:53:00,
2013-05-02 01:58:00,41.9,34.9,30.30,North,0,4.0,9.0,76,0.00,,---,0.00,VWS V14.01,2013-05-02 05:58:00,
2013-05-02 02:00:00,43.2,35.8,30.30,NNW,343,3.0,8.0,75,0.00,,---,0.00,VWS V14.01,2013-05-02 06:00:00,
2013-05-02 02:03:00,41.9,34.9,30.30,North,3,2.0,8.0,76,0.00,,---,0.00,VWS V14.01,2013-05-02 06:03:00,
2013-05-02 02:08:00,41.7,34.7,30.30,North,4,3.0,9.0,76,0.00,,---,0.00,VWS V14.01,2013-05-02 06:08:00,
2013-05-02 02:10:00,43.0,35.6,30.31,NNW,343,3.0,9.0,75,0.00,,---,0.00,VWS V14.01,2013-05-02 06:10:00,
2013-05-02 02:13:00,41.6,34.6,30.30,North,6,4.0,9.0,76,0.00,,---,0.00,VWS V14.01,2013-05-02 06:13:00,
2013-05-02 02:19:00,41.5,34.5,30.30,NNW,344,5.0,9.0,76,0.00,,---,0.00,VWS V14.01,2013-05-02 06:19:00,
2013-05-02 02:20:00,42.9,35.9,30.31,North,358,5.0,11.0,76,0.00,,---,0.00,VWS V14.01,2013-05-02 06:20:00,
2013-05-02 02:24:00,41.3,34.3,30.30,NNW,337,6.0,8.0,76,0.00,,---,0.00,VWS V14.01,2013-05-02 06:24:00,
2013-05-02 02:29:00,41.2,34.2,30.30,North,359,4.0,8.0,76,0.00,,---,0.00,VWS V14.01,2013-05-02 06:29:00,
2013-05-02 02:30:00,42.4,35.4,30.31,NNW,348,7.0,11.0,76,0.00,,---,0.00,VWS V14.01,2013-05-02 06:30:00,
2013-05-02 02:34:00,40.9,34.3,30.30,NNW,338,2.0,9.0,77,0.00,,---,0.00,VWS V14.01,2013-05-02 06:34:00,
2013-05-02 02:39:00,40.7,34.4,30.30,North,0,4.0,9.0,78,0.00,,---,0.00,VWS V14.01,2013-05-02 06:39:00,
2013-05-02 02:40:00,42.3,35.6,30.30,NNW,339,3.0,9.0,77,0.00,,---,0.00,VWS V14.01,2013-05-02 06:40:00,
2013-05-02 02:44:00,40.7,34.4,30.30,NNW,346,5.0,8.0,78,0.00,,---,0.00,VWS V14.01,2013-05-02 06:44:00,
2013-05-02 02:49:00,40.6,34.3,30.29,North,353,8.0,9.0,78,0.00,,---,0.00,VWS V14.01,2013-05-02 06:49:00,
2013-05-02 02:50:00,42.0,35.7,30.30,North,10,5.0,11.0,78,0.00,,---,0.00,VWS V14.01,2013-05-02 06:50:00,
2013-05-02 02:54:00,40.5,34.2,30.30,NNW,348,7.0,7.0,78,0.00,,---,0.00,VWS V14.01,2013-05-02 06:54:00,
2013-05-02 02:59:00,40.3,34.3,30.29,NNW,340,3.0,7.0,79,0.00,,---,0.00,VWS V14.01,2013-05-02 06:59:00,
2013-05-02 03:00:00,41.9,34.9,30.30,North,5,4.0,9.0,76,0.00,,---,0.00,VWS V14.01,2013-05-02 07:00:00,
2013-05-02 03:04:00,40.3,34.0,30.29,North,352,4.0,7.0,78,0.00,,---,0.00,VWS V14.01,2013-05-02 07:04:00,
2013-05-02 03:09:00,40.2,33.9,30.29,North,2,4.0,7.0,78,0.00,,---,0.00,VWS V14.01,2013-05-02 07:09:00,
2013-05-02 03:10:00,41.7,34.7,30.30,North,4,4.0,9.0,76,0.00,,---,0.00,VWS V14.01,2013-05-02 07:10:00,
2013-05-02 03:14:00,40.2,33.9,30.29,North,1,3.0,5.0,78,0.00,,---,0.00,VWS V14.01,2013-05-02 07:14:00,
2013-05-02 03:19:00,40.0,33.7,30.29,North,359,2.0,9.0,78,0.00,,---,0.00,VWS V14.01,2013-05-02 07:19:00,
2013-05-02 03:20:00,41.5,34.5,30.30,North,351,5.0,9.0,76,0.00,,---,0.00,VWS V14.01,2013-05-02 07:20:00,
2013-05-02 03:24:00,40.0,34.0,30.29,NNW,344,5.0,6.0,79,0.00,,---,0.00,VWS V14.01,2013-05-02 07:24:00,
2013-05-02 03:29:00,39.9,34.2,30.29,North,358,6.0,9.0,80,0.00,,---,0.00,VWS V14.01,2013-05-02 07:29:00,
2013-05-02 03:30:00,41.0,34.3,30.30,North,351,7.0,10.0,77,0.00,,---,0.00,VWS V14.01,2013-05-02 07:30:00,
2013-05-02 03:34:00,39.9,34.2,30.29,North,0,4.0,7.0,80,0.00,,---,0.00,VWS V14.01,2013-05-02 07:34:00,
2013-05-02 03:39:00,39.7,34.0,30.29,North,0,4.0,7.0,80,0.00,,---,0.00,VWS V14.01,2013-05-02 07:39:00,
2013-05-02 03:40:00,40.7,34.4,30.30,NNW,337,4.0,9.0,78,0.00,,---,0.00,VWS V14.01,2013-05-02 07:40:00,
2013-05-02 03:44:00,39.7,34.0,30.29,NNW,339,6.0,8.0,80,0.00,,---,0.00,VWS V14.01,2013-05-02 07:44:00,
2013-05-02 03:49:00,39.6,34.0,30.28,North,349,8.0,9.0,80,0.00,,---,0.00,VWS V14.01,2013-05-02 07:49:00,
2013-05-02 03:50:00,40.6,34.3,30.29,North,356,4.0,9.0,78,0.00,,---,0.00,VWS V14.01,2013-05-02 07:50:00,
2013-05-02 03:54:00,39.6,34.0,30.28,North,1,6.0,9.0,80,0.00,,---,0.00,VWS V14.01,2013-05-02 07:54:00,
2013-05-02 03:59:00,39.4,33.8,30.28,North,4,5.0,9.0,80,0.00,,---,0.00,VWS V14.01,2013-05-02 07:59:00,
2013-05-02 04:00:00,40.3,34.3,30.29,NNE,28,4.0,7.0,79,0.00,,---,0.00,VWS V14.01,2013-05-02 08:00:00,
2013-05-02 04:04:00,39.5,33.8,30.28,North,0,2.0,7.0,80,0.00,,---,0.00,VWS V14.01,2013-05-02 08:04:00,
2013-05-02 04:09:00,39.3,33.7,30.28,NNE,15,4.0,7.0,80,0.00,,---,0.00,VWS V14.01,2013-05-02 08:09:00,
2013-05-02 04:10:00,40.2,34.2,30.28,North,1,4.0,7.0,79,0.00,,---,0.00,VWS V14.01,2013-05-02 08:10:00,
2013-05-02 04:14:00,39.2,33.6,30.28,North,7,3.0,6.0,80,0.00,,---,0.00,VWS V14.01,2013-05-02 08:14:00,
2013-05-02 04:19:00,39.2,33.6,30.28,North,351,3.0,6.0,80,0.00,,---,0.00,VWS V14.01,2013-05-02 08:19:00,
2013-05-02 04:20:00,40.0,33.7,30.29,North,0,2.0,9.0,78,0.00,,---,0.00,VWS V14.01,2013-05-02 08:20:00,
2013-05-02 04:24:00,39.0,33.4,30.29,NNW,336,4.0,6.0,80,0.00,,---,0.00,VWS V14.01,2013-05-02 08:24:00,
2013-05-02 04:30:00,39.0,33.4,30.29,NNW,345,2.0,6.0,80,0.00,,---,0.00,VWS V14.01,2013-05-02 08:30:00,
2013-05-02 04:35:00,39.0,33.7,30.29,NNW,341,5.0,7.0,81,0.00,,---,0.00,VWS V14.01,2013-05-02 08:35:00,
2013-05-02 04:40:00,39.0,33.7,30.29,North,353,6.0,7.0,81,0.00,,---,0.00,VWS V14.01,2013-05-02 08:40:00,
2013-05-02 04:45:00,39.0,33.7,30.29,North,5,3.0,7.0,81,0.00,,---,0.00,VWS V14.01,2013-05-02 08:45:00,
2013-05-02 04:50:00,39.0,34.0,30.29,NNW,343,2.0,8.0,82,0.00,,---,0.00,VWS V14.01,2013-05-02 08:50:00,
2013-05-02 04:55:00,38.9,33.9,30.29,NNW,344,4.0,7.0,82,0.00,,---,0.00,VWS V14.01,2013-05-02 08:55:00,
2013-05-02 05:00:00,38.9,34.2,30.29,NNW,347,7.0,8.0,83,0.00,,---,0.00,VWS V14.01,2013-05-02 09:00:00,
2013-05-02 05:05:00,38.9,34.2,30.29,North,355,5.0,8.0,83,0.00,,---,0.00,VWS V14.01,2013-05-02 09:05:00,
2013-05-02 05:10:00,38.7,34.0,30.29,NNW,347,3.0,6.0,83,0.00,,---,0.00,VWS V14.01,2013-05-02 09:10:00,
2013-05-02 05:15:00,38.7,34.3,30.29,NNW,348,5.0,8.0,84,0.00,,---,0.00,VWS V14.01,2013-05-02 09:15:00,
2013-05-02 05:20:00,38.7,34.0,30.29,North,352,3.0,5.0,83,0.00,,---,0.00,VWS V14.01,2013-05-02 09:20:00,
2013-05-02 05:25:00,38.6,33.9,30.29,North,352,4.0,5.0,83,0.00,,---,0.00,VWS V14.01,2013-05-02 09:25:00,
2013-05-02 05:30:00,38.6,33.9,30.28,North,352,3.0,4.0,83,0.00,,---,0.00,VWS V14.01,2013-05-02 09:30:00,
2013-05-02 05:35:00,38.6,34.2,30.28,North,352,3.0,5.0,84,0.00,,---,0.00,VWS V14.01,2013-05-02 09:35:00,
2013-05-02 05:40:00,38.5,34.1,30.29,North,352,2.0,3.0,84,0.00,,---,0.00,VWS V14.01,2013-05-02 09:40:00,
2013-05-02 05:45:00,38.5,34.1,30.29,North,352,1.0,4.0,84,0.00,,---,0.00,VWS V14.01,2013-05-02 09:45:00,
2013-05-02 05:50:00,38.4,34.3,30.29,North,352,2.0,4.0,85,0.00,,---,0.00,VWS V14.01,2013-05-02 09:50:00,
2013-05-02 05:55:00,38.5,34.4,30.28,North,353,5.0,5.0,85,0.00,,---,0.00,VWS V14.01,2013-05-02 09:55:00,
2013-05-02 06:00:00,38.5,34.1,30.29,North,353,3.0,6.0,84,0.00,,---,0.00,VWS V14.01,2013-05-02 10:00:00,
2013-05-02 06:05:00,38.5,34.4,30.28,North,353,5.0,6.0,85,0.00,,---,0.00,VWS V14.01,2013-05-02 10:05:00,
2013-05-02 06:10:00,38.5,34.4,30.28,North,0,4.0,5.0,85,0.00,,---,0.00,VWS V14.01,2013-05-02 10:10:00,
2013-05-02 06:15:00,38.5,34.4,30.29,North,350,3.0,6.0,85,0.00,,---,0.00,VWS V14.01,2013-05-02 10:15:00,
2013-05-02 06:20:00,38.4,34.6,30.28,North,1,4.0,7.0,86,0.00,,---,0.00,VWS V14.01,2013-05-02 10:20:00,
2013-05-02 06:25:00,38.6,34.8,30.29,North,0,3.0,7.0,86,0.00,,---,0.00,VWS V14.01,2013-05-02 10:25:00,
2013-05-02 06:30:00,38.6,34.8,30.29,North,0,3.0,8.0,86,0.00,,---,0.00,VWS V14.01,2013-05-02 10:30:00,
2013-05-02 06:35:00,38.6,34.8,30.29,North,352,4.0,8.0,86,0.00,,---,0.00,VWS V14.01,2013-05-02 10:35:00,
2013-05-02 06:40:00,38.6,34.5,30.30,North,11,5.0,7.0,85,0.00,,---,0.00,VWS V14.01,2013-05-02 10:40:00,
2013-05-02 06:45:00,38.6,34.8,30.29,North,356,3.0,7.0,86,0.00,,---,0.00,VWS V14.01,2013-05-02 10:45:00,
2013-05-02 06:50:00,38.6,34.8,30.29,North,356,4.0,5.0,86,0.00,,---,0.00,VWS V14.01,2013-05-02 10:50:00,
2013-05-02 06:56:00,38.6,34.5,30.30,North,0,5.0,7.0,85,0.00,,---,0.00,VWS V14.01,2013-05-02 10:56:00,
2013-05-02 07:00:00,38.5,34.1,30.29,North,353,6.0,6.0,84,0.00,,---,0.00,VWS V14.01,2013-05-02 11:00:00,
2013-05-02 07:01:00,38.7,34.9,30.30,North,350,5.0,6.0,86,0.00,,---,0.00,VWS V14.01,2013-05-02 11:01:00,
2013-05-02 07:06:00,38.7,34.9,30.30,NNW,345,4.0,7.0,86,0.00,,---,0.00,VWS V14.01,2013-05-02 11:06:00,
2013-05-02 07:10:00,38.5,34.4,30.29,North,0,4.0,7.0,85,0.00,,---,0.00,VWS V14.01,2013-05-02 11:10:00,
2013-05-02 07:11:00,38.8,34.7,30.29,North,0,4.0,5.0,85,0.00,,---,0.00,VWS V14.01,2013-05-02 11:11:00,
2013-05-02 07:16:00,38.9,35.1,30.30,North,350,5.0,6.0,86,0.00,,---,0.00,VWS V14.01,2013-05-02 11:16:00,
2013-05-02 07:20:00,38.5,34.7,30.29,North,4,2.0,8.0,86,0.00,,---,0.00,VWS V14.01,2013-05-02 11:20:00,
2013-05-02 07:21:00,38.9,34.8,30.30,NNW,345,3.0,7.0,85,0.00,,---,0.00,VWS V14.01,2013-05-02 11:21:00,
2013-05-02 07:26:00,39.0,35.2,30.30,NNW,342,6.0,7.0,86,0.00,,---,0.00,VWS V14.01,2013-05-02 11:26:00,
2013-05-02 07:30:00,38.6,34.5,30.29,North,4,8.0,8.0,85,0.00,,---,0.00,VWS V14.01,2013-05-02 11:30:00,
2013-05-02 07:31:00,39.0,34.9,30.30,North,356,5.0,7.0,85,0.00,,---,0.00,VWS V14.01,2013-05-02 11:31:00,
2013-05-02 07:36:00,39.2,35.1,30.30,North,0,3.0,9.0,85,0.00,,---,0.00,VWS V14.01,2013-05-02 11:36:00,
2013-05-02 07:40:00,38.6,34.5,30.29,North,0,3.0,8.0,85,0.00,,---,0.00,VWS V14.01,2013-05-02 11:40:00,
2013-05-02 07:41:00,39.4,35.3,30.30,North,0,4.0,7.0,85,0.00,,---,0.00,VWS V14.01,2013-05-02 11:41:00,
2013-05-02 07:46:00,39.6,35.5,30.30,North,0,5.0,7.0,85,0.00,,---,0.00,VWS V14.01,2013-05-02 11:46:00,
2013-05-02 07:50:00,38.6,34.5,30.30,North,356,4.0,7.0,85,0.00,,---,0.00,VWS V14.01,2013-05-02 11:50:00,
2013-05-02 07:51:00,39.6,35.2,30.30,North,352,5.0,8.0,84,0.00,,---,0.00,VWS V14.01,2013-05-02 11:51:00,
2013-05-02 07:56:00,39.7,35.6,30.31,NNW,348,6.0,8.0,85,0.00,,---,0.00,VWS V14.01,2013-05-02 11:56:00,
2013-05-02 08:00:00,38.8,35.0,30.29,North,1,4.0,7.0,86,0.00,,---,0.00,VWS V14.01,2013-05-02 12:00:00,
2013-05-02 08:01:00,40.0,35.6,30.31,North,352,4.0,7.0,84,0.00,,---,0.00,VWS V14.01,2013-05-02 12:01:00,
2013-05-02 08:06:00,40.2,35.8,30.31,NNW,337,5.0,8.0,84,0.00,,---,0.00,VWS V14.01,2013-05-02 12:06:00,
2013-05-02 08:10:00,38.7,34.6,30.30,North,1,4.0,9.0,85,0.00,,---,0.00,VWS V14.01,2013-05-02 12:10:00,
2013-05-02 08:11:00,40.5,35.8,30.31,NNW,345,1.0,5.0,83,0.00,,---,0.00,VWS V14.01,2013-05-02 12:11:00,
2013-05-02 08:16:00,40.7,36.0,30.31,NW,320,4.0,6.0,83,0.00,,---,0.00,VWS V14.01,2013-05-02 12:16:00,
2013-05-02 08:20:00,38.9,35.1,30.29,North,0,4.0,7.0,86,0.00,,---,0.00,VWS V14.01,2013-05-02 12:20:00,
2013-05-02 08:21:00,40.9,36.1,30.31,NNW,345,5.0,9.0,83,0.00,,---,0.00,VWS V14.01,2013-05-02 12:21:00,
2013-05-02 08:26:00,41.0,36.2,30.31,NW,325,4.0,9.0,83,0.00,,---,0.00,VWS V14.01,2013-05-02 12:26:00,
2013-05-02 08:30:00,39.0,34.9,30.30,North,349,3.0,7.0,85,0.00,,---,0.00,VWS V14.01,2013-05-02 12:30:00,
2013-05-02 08:31:00,41.0,35.9,30.31,NNW,347,6.0,9.0,82,0.00,,---,0.00,VWS V14.01,2013-05-02 12:31:00,
2013-05-02 08:36:00,41.2,35.8,30.31,North,0,3.0,9.0,81,0.00,,---,0.00,VWS V14.01,2013-05-02 12:36:00,
2013-05-02 08:40:00,39.5,35.4,30.30,North,0,4.0,9.0,85,0.00,,---,0.00,VWS V14.01,2013-05-02 12:40:00,
2013-05-02 08:41:00,41.5,36.1,30.31,North,358,3.0,6.0,81,0.00,,---,0.00,VWS V14.01,2013-05-02 12:41:00,
2013-05-02 08:46:00,41.6,36.2,30.31,North,350,4.0,8.0,81,0.00,,---,0.00,VWS V14.01,2013-05-02 12:46:00,
2013-05-02 08:50:00,39.6,35.5,30.30,North,0,4.0,9.0,85,0.00,,---,0.00,VWS V14.01,2013-05-02 12:50:00,
2013-05-02 08:51:00,41.9,35.9,30.31,North,359,5.0,7.0,79,0.00,,---,0.00,VWS V14.01,2013-05-02 12:51:00,
2013-05-02 08:56:00,41.9,36.2,30.31,NNW,343,7.0,8.0,80,0.00,,---,0.00,VWS V14.01,2013-05-02 12:56:00,
2013-05-02 09:00:00,40.0,35.9,30.30,North,3,5.0,8.0,85,0.00,,---,0.00,VWS V14.01,2013-05-02 13:00:00,
2013-05-02 09:01:00,42.2,36.5,30.31,NNW,328,6.0,8.0,80,0.00,,---,0.00,VWS V14.01,2013-05-02 13:01:00,
2013-05-02 09:06:00,42.5,36.5,30.31,NNW,336,2.0,8.0,79,0.00,,---,0.00,VWS V14.01,2013-05-02 13:06:00,
2013-05-02 09:10:00,40.5,36.1,30.31,NNW,342,5.0,8.0,84,0.00,,---,0.00,VWS V14.01,2013-05-02 13:10:00,
2013-05-02 09:11:00,42.5,36.1,30.31,NNW,344,4.0,7.0,78,0.00,,---,0.00,VWS V14.01,2013-05-02 13:11:00,
2013-05-02 09:16:00,42.3,35.9,30.31,NNW,330,1.0,8.0,78,0.00,,---,0.00,VWS V14.01,2013-05-02 13:16:00,
2013-05-02 09:20:00,40.9,36.1,30.31,NNW,345,5.0,7.0,83,0.00,,---,0.00,VWS V14.01,2013-05-02 13:20:00,
2013-05-02 09:21:00,42.5,36.8,30.31,NNW,336,2.0,5.0,80,0.00,,---,0.00,VWS V14.01,2013-05-02 13:21:00,
2013-05-02 09:26:00,42.9,36.5,30.31,North,350,5.0,8.0,78,0.00,,---,0.00,VWS V14.01,2013-05-02 13:26:00,
2013-05-02 09:30:00,41.0,35.9,30.31,NNW,330,5.0,9.0,82,0.00,,---,0.00,VWS V14.01,2013-05-02 13:30:00,
2013-05-02 09:31:00,43.3,36.9,30.31,North,350,6.0,10.0,78,0.00,,---,0.00,VWS V14.01,2013-05-02 13:31:00,
2013-05-02 09:36:00,43.5,37.1,30.31,NNW,337,4.0,10.0,78,0.00,,---,0.00,VWS V14.01,2013-05-02 13:36:00,
2013-05-02 09:40:00,41.5,36.1,30.31,NNW,346,5.0,9.0,81,0.00,,---,0.00,VWS V14.01,2013-05-02 13:40:00,
2013-05-02 09:41:00,43.7,37.0,30.31,North,351,4.0,8.0,77,0.00,,---,0.00,VWS V14.01,2013-05-02 13:41:00,
2013-05-02 09:46:00,44.0,37.3,30.31,NNW,338,4.0,8.0,77,0.00,,---,0.00,VWS V14.01,2013-05-02 13:46:00,
2013-05-02 09:50:00,41.7,36.0,30.31,North,352,6.0,8.0,80,0.00,,---,0.00,VWS V14.01,2013-05-02 13:50:00,
2013-05-02 09:51:00,44.3,37.2,30.31,North,351,1.0,7.0,76,0.00,,---,0.00,VWS V14.01,2013-05-02 13:51:00,
2013-05-02 09:56:00,44.9,37.5,30.31,NNW,331,4.0,7.0,75,0.00,,---,0.00,VWS V14.01,2013-05-02 13:56:00,
2013-05-02 10:00:00,42.0,36.3,30.31,NNW,345,6.0,9.0,80,0.00,,---,0.00,VWS V14.01,2013-05-02 14:00:00,
2013-05-02 10:01:00,45.3,37.9,30.31,North,349,7.0,7.0,75,0.00,,---,0.00,VWS V14.01,2013-05-02 14:01:00,
2013-05-02 10:06:00,45.7,37.9,30.31,NW,312,5.0,7.0,74,0.00,,---,0.00,VWS V14.01,2013-05-02 14:06:00,
2013-05-02 10:10:00,42.4,36.0,30.31,NNW,333,3.0,8.0,78,0.00,,---,0.00,VWS V14.01,2013-05-02 14:10:00,
2013-05-02 10:11:00,46.0,37.8,30.31,NW,307,0.0,7.0,73,0.00,,---,0.00,VWS V14.01,2013-05-02 14:11:00,
2013-05-02 10:16:00,46.0,37.5,30.31,NW,308,4.0,8.0,72,0.00,,---,0.00,VWS V14.01,2013-05-02 14:16:00,
2013-05-02 10:20:00,42.3,36.3,30.31,NNW,329,2.0,8.0,79,0.00,,---,0.00,VWS V14.01,2013-05-02 14:20:00,
2013-05-02 10:22:00,46.4,38.2,30.30,NW,310,2.0,5.0,73,0.00,,---,0.00,VWS V14.01,2013-05-02 14:22:00,
2013-05-02 10:27:00,46.4,37.5,30.30,NW,305,2.0,6.0,71,0.00,,---,0.00,VWS V14.01,2013-05-02 14:27:00,
2013-05-02 10:30:00,43.2,36.8,30.31,NNW,346,7.0,10.0,78,0.00,,---,0.00,VWS V14.01,2013-05-02 14:30:00,
2013-05-02 10:32:00,46.3,37.8,30.30,NW,313,5.0,6.0,72,0.00,,---,0.00,VWS V14.01,2013-05-02 14:32:00,
2013-05-02 10:37:00,46.1,37.6,30.30,NW,311,0.0,6.0,72,0.00,,---,0.00,VWS V14.01,2013-05-02 14:37:00,
2013-05-02 10:42:00,46.4,37.9,30.30,NW,317,4.0,6.0,72,0.00,,---,0.00,VWS V14.01,2013-05-02 14:42:00,
2013-05-02 10:47:00,46.8,38.3,30.30,NW,314,3.0,6.0,72,0.00,,---,0.00,VWS V14.01,2013-05-02 14:47:00,
2013-05-02 10:50:00,44.2,37.1,30.31,North,357,5.0,8.0,76,0.00,,---,0.00,VWS V14.01,2013-05-02 14:50:00,
2013-05-02 10:52:00,47.1,37.8,30.30,NW,314,7.0,7.0,70,0.00,,---,0.00,VWS V14.01,2013-05-02 14:52:00,
2013-05-02 10:57:00,47.0,37.7,30.29,NW,318,7.0,7.0,70,0.00,,---,0.00,VWS V14.01,2013-05-02 14:57:00,
2013-05-02 11:02:00,47.4,38.8,30.29,NW,312,2.0,6.0,72,0.00,,---,0.00,VWS V14.01,2013-05-02 15:02:00,
2013-05-02 11:07:00,48.9,39.2,30.29,WNW,302,5.0,7.0,69,0.00,,---,0.00,VWS V14.01,2013-05-02 15:07:00,
2013-05-02 11:10:00,46.0,38.5,30.31,NW,304,6.0,7.0,75,0.00,,---,0.00,VWS V14.01,2013-05-02 15:10:00,
2013-05-02 11:12:00,48.9,39.2,30.28,WNW,301,5.0,8.0,69,0.00,,---,0.00,VWS V14.01,2013-05-02 15:12:00,
2013-05-02 11:17:00,48.9,38.8,30.29,NW,310,4.0,8.0,68,0.00,,---,0.00,VWS V14.01,2013-05-02 15:17:00,
2013-05-02 11:20:00,46.3,38.5,30.30,NW,306,4.0,8.0,74,0.00,,---,0.00,VWS V14.01,2013-05-02 15:20:00,
2013-05-02 11:22:00,49.3,39.6,30.28,NW,309,5.0,6.0,69,0.00,,---,0.00,VWS V14.01,2013-05-02 15:22:00,
2013-05-02 11:27:00,49.9,39.4,30.29,NW,325,4.0,8.0,67,0.00,,---,0.00,VWS V14.01,2013-05-02 15:27:00,
2013-05-02 11:30:00,46.4,37.9,30.30,NW,305,5.0,6.0,72,0.00,,---,0.00,VWS V14.01,2013-05-02 15:30:00,
2013-05-02 11:32:00,50.5,39.6,30.29,NNW,330,4.0,7.0,66,0.00,,---,0.00,VWS V14.01,2013-05-02 15:32:00,
2013-05-02 11:37:00,51.4,40.4,30.28,NW,317,7.0,7.0,66,0.00,,---,0.00,VWS V14.01,2013-05-02 15:37:00,
2013-05-02 11:40:00,46.2,37.7,30.30,NW,318,5.0,6.0,72,0.00,,---,0.00,VWS V14.01,2013-05-02 15:40:00,
2013-05-02 11:42:00,51.7,40.3,30.28,NW,311,3.0,7.0,65,0.00,,---,0.00,VWS V14.01,2013-05-02 15:42:00,
2013-05-02 11:47:00,52.6,41.6,30.28,NW,313,5.0,7.0,66,0.00,,---,0.00,VWS V14.01,2013-05-02 15:47:00,
2013-05-02 11:50:00,47.3,38.7,30.30,NW,311,4.0,7.0,72,0.00,,---,0.00,VWS V14.01,2013-05-02 15:50:00,
2013-05-02 11:52:00,53.3,41.5,30.28,NW,304,5.0,7.0,64,0.00,,---,0.00,VWS V14.01,2013-05-02 15:52:00,
2013-05-02 11:57:00,53.4,41.1,30.28,NW,312,7.0,7.0,63,0.00,,---,0.00,VWS V14.01,2013-05-02 15:57:00,
2013-05-02 12:00:00,47.1,38.5,30.29,West,281,4.0,7.0,72,0.00,,---,0.00,VWS V14.01,2013-05-02 16:00:00,
2013-05-02 12:02:00,53.3,41.0,30.27,WNW,303,5.0,7.0,63,0.00,,---,0.00,VWS V14.01,2013-05-02 16:02:00,
2013-05-02 12:07:00,53.9,41.6,30.27,NW,326,2.0,7.0,63,0.00,,---,0.00,VWS V14.01,2013-05-02 16:07:00,
2013-05-02 12:10:00,48.9,39.2,30.29,NW,306,3.0,7.0,69,0.00,,---,0.00,VWS V14.01,2013-05-02 16:10:00,
2013-05-02 12:12:00,54.8,42.5,30.27,NW,314,5.0,7.0,63,0.00,,---,0.00,VWS V14.01,2013-05-02 16:12:00,
2013-05-02 12:17:00,54.9,42.1,30.27,NW,325,4.0,7.0,62,0.00,,---,0.00,VWS V14.01,2013-05-02 16:17:00,
2013-05-02 12:20:00,48.9,39.2,30.29,NW,311,4.0,8.0,69,0.00,,---,0.00,VWS V14.01,2013-05-02 16:20:00,
2013-05-02 12:22:00,55.0,42.2,30.27,NW,307,7.0,7.0,62,0.00,,---,0.00,VWS V14.01,2013-05-02 16:22:00,
2013-05-02 12:27:00,55.6,43.2,30.27,NNW,345,5.0,7.0,63,0.00,,---,0.00,VWS V14.01,2013-05-02 16:27:00,
2013-05-02 12:30:00,50.2,40.1,30.28,NW,309,6.0,8.0,68,0.00,,---,0.00,VWS V14.01,2013-05-02 16:30:00,
2013-05-02 12:32:00,56.5,43.2,30.26,NNW,345,4.0,6.0,61,0.00,,---,0.00,VWS V14.01,2013-05-02 16:32:00,
2013-05-02 12:37:00,57.1,43.8,30.26,NNW,340,7.0,8.0,61,0.00,,---,0.00,VWS V14.01,2013-05-02 16:37:00,
2013-05-02 12:40:00,51.7,40.7,30.28,NW,320,5.0,7.0,66,0.00,,---,0.00,VWS V14.01,2013-05-02 16:40:00,
2013-05-02 12:42:00,57.4,43.6,30.26,NNW,336,4.0,8.0,60,0.00,,---,0.00,VWS V14.01,2013-05-02 16:42:00,
2013-05-02 12:47:00,58.0,43.8,30.26,NW,316,9.0,9.0,59,0.00,,---,0.00,VWS V14.01,2013-05-02 16:47:00,
2013-05-02 12:50:00,53.0,41.6,30.28,NW,310,4.0,7.0,65,0.00,,---,0.00,VWS V14.01,2013-05-02 16:50:00,
2013-05-02 12:52:00,58.2,44.0,30.25,North,356,4.0,9.0,59,0.00,,---,0.00,VWS V14.01,2013-05-02 16:52:00,
2013-05-02 12:57:00,58.3,43.6,30.25,North,353,3.0,10.0,58,0.00,,---,0.00,VWS V14.01,2013-05-02 16:57:00,
2013-05-02 13:00:00,53.3,41.5,30.28,WNW,302,5.0,8.0,64,0.00,,---,0.00,VWS V14.01,2013-05-02 17:00:00,
2013-05-02 13:02:00,58.6,43.9,30.25,NNW,341,8.0,9.0,58,0.00,,---,0.00,VWS V14.01,2013-05-02 17:02:00,
2013-05-02 13:08:00,59.0,43.3,30.24,North,349,8.0,11.0,56,0.00,,---,0.00,VWS V14.01,2013-05-02 17:08:00,
2013-05-02 13:10:00,54.2,42.7,30.27,NNW,335,3.0,7.0,65,0.00,,---,0.00,VWS V14.01,2013-05-02 17:10:00,
2013-05-02 13:13:00,59.1,43.9,30.24,NNW,339,5.0,9.0,57,0.00,,---,0.00,VWS V14.01,2013-05-02 17:13:00,
2013-05-02 13:18:00,58.5,43.8,30.24,NNW,341,7.0,10.0,58,0.00,,---,0.00,VWS V14.01,2013-05-02 17:18:00,
2013-05-02 13:20:00,54.9,42.1,30.27,NW,308,2.0,7.0,62,0.00,,---,0.00,VWS V14.01,2013-05-02 17:20:00,
2013-05-02 13:23:00,58.3,43.6,30.24,North,350,7.0,10.0,58,0.00,,---,0.00,VWS V14.01,2013-05-02 17:23:00,
2013-05-02 13:28:00,58.6,43.9,30.23,North,0,5.0,11.0,58,0.00,,---,0.00,VWS V14.01,2013-05-02 17:28:00,
2013-05-02 13:30:00,56.1,43.7,30.27,NW,325,4.0,7.0,63,0.00,,---,0.00,VWS V14.01,2013-05-02 17:30:00,
2013-05-02 13:33:00,58.8,44.1,30.23,North,355,9.0,10.0,58,0.00,,---,0.00,VWS V14.01,2013-05-02 17:33:00,
2013-05-02 13:38:00,59.0,44.3,30.23,SW,219,6.0,10.0,58,0.00,,---,0.00,VWS V14.01,2013-05-02 17:38:00,
2013-05-02 13:40:00,57.1,42.9,30.26,North,349,7.0,8.0,59,0.00,,---,0.00,VWS V14.01,2013-05-02 17:40:00,
2013-05-02 13:43:00,58.9,44.2,30.22,SSW,196,5.0,12.0,58,0.00,,---,0.00,VWS V14.01,2013-05-02 17:43:00,
2013-05-02 13:48:00,59.0,43.8,30.22,NNW,328,8.0,12.0,57,0.00,,---,0.00,VWS V14.01,2013-05-02 17:48:00,
2013-05-02 13:50:00,58.2,43.5,30.26,North,349,5.0,9.0,58,0.00,,---,0.00,VWS V14.01,2013-05-02 17:50:00,
2013-05-02 13:53:00,58.8,44.1,30.22,North,354,7.0,11.0,58,0.00,,---,0.00,VWS V14.01,2013-05-02 17:53:00,
2013-05-02 13:58:00,59.4,44.6,30.22,NNW,336,7.0,11.0,58,0.00,,---,0.00,VWS V14.01,2013-05-02 17:58:00,
2013-05-02 14:00:00,58.5,43.8,30.25,NW,308,5.0,10.0,58,0.00,,---,0.00,VWS V14.01,2013-05-02 18:00:00,
2013-05-02 14:03:00,59.9,44.7,30.22,NNW,330,4.0,10.0,57,0.00,,---,0.00,VWS V14.01,2013-05-02 18:03:00,
2013-05-02 14:08:00,60.3,45.5,30.22,North,353,7.0,10.0,58,0.00,,---,0.00,VWS V14.01,2013-05-02 18:08:00,
2013-05-02 14:10:00,58.8,44.1,30.24,NNW,340,4.0,11.0,58,0.00,,---,0.00,VWS V14.01,2013-05-02 18:10:00,
2013-05-02 14:13:00,61.0,45.2,30.22,NNW,347,6.0,12.0,56,0.00,,---,0.00,VWS V14.01,2013-05-02 18:13:00,
2013-05-02 14:18:00,61.3,45.5,30.22,North,355,7.0,13.0,56,0.00,,---,0.00,VWS V14.01,2013-05-02 18:18:00,
2013-05-02 14:20:00,58.3,42.7,30.24,NNW,341,6.0,10.0,56,0.00,,---,0.00,VWS V14.01,2013-05-02 18:20:00,
2013-05-02 14:23:00,61.4,45.1,30.22,North,359,9.0,12.0,55,0.00,,---,0.00,VWS V14.01,2013-05-02 18:23:00,
2013-05-02 14:28:00,61.4,45.6,30.22,North,1,7.0,12.0,56,0.00,,---,0.00,VWS V14.01,2013-05-02 18:28:00,
2013-05-02 14:30:00,58.6,43.9,30.24,NNW,348,7.0,11.0,58,0.00,,---,0.00,VWS V14.01,2013-05-02 18:30:00,
2013-05-02 14:33:00,61.6,45.3,30.22,NNW,341,9.0,13.0,55,0.00,,---,0.00,VWS V14.01,2013-05-02 18:33:00,
2013-05-02 14:38:00,61.3,45.0,30.22,NNW,346,12.0,15.0,55,0.00,,---,0.00,VWS V14.01,2013-05-02 18:38:00,
2013-05-02 14:40:00,59.1,44.3,30.23,East,89,9.0,11.0,58,0.00,,---,0.00,VWS V14.01,2013-05-02 18:40:00,
2013-05-02 14:43:00,60.8,44.5,30.21,North,2,10.0,14.0,55,0.00,,---,0.00,VWS V14.01,2013-05-02 18:43:00,
2013-05-02 14:48:00,60.3,44.1,30.22,North,2,11.0,16.0,55,0.00,,---,0.00,VWS V14.01,2013-05-02 18:48:00,
2013-05-02 14:50:00,58.8,43.2,30.22,North,355,5.0,12.0,56,0.00,,---,0.00,VWS V14.01,2013-05-02 18:50:00,
2013-05-02 14:53:00,59.7,43.5,30.22,SE,136,11.0,15.0,55,0.00,,---,0.00,VWS V14.01,2013-05-02 18:53:00,
2013-05-02 14:58:00,58.9,43.2,30.22,North,349,8.0,15.0,56,0.00,,---,0.00,VWS V14.01,2013-05-02 18:58:00,
2013-05-02 15:00:00,59.5,44.3,30.22,North,0,6.0,13.0,57,0.00,,---,0.00,VWS V14.01,2013-05-02 19:00:00,
2013-05-02 15:03:00,58.3,42.7,30.22,North,359,15.0,17.0,56,0.00,,---,0.00,VWS V14.01,2013-05-02 19:03:00,
2013-05-02 15:08:00,57.9,43.2,30.22,North,352,9.0,17.0,58,0.00,,---,0.00,VWS V14.01,2013-05-02 19:08:00,
2013-05-02 15:10:00,60.7,45.4,30.22,North,8,6.0,11.0,57,0.00,,---,0.00,VWS V14.01,2013-05-02 19:10:00,
2013-05-02 15:13:00,56.2,42.5,30.22,NE,36,11.0,21.0,60,0.00,,---,0.00,VWS V14.01,2013-05-02 19:13:00,
2013-05-02 15:18:00,55.3,42.1,30.22,North,357,12.0,21.0,61,0.00,,---,0.00,VWS V14.01,2013-05-02 19:18:00,
2013-05-02 15:20:00,61.4,45.1,30.22,North,10,8.0,13.0,55,0.00,,---,0.00,VWS V14.01,2013-05-02 19:20:00,
2013-05-02 15:23:00,55.2,42.4,30.22,North,352,9.0,17.0,62,0.00,,---,0.00,VWS V14.01,2013-05-02 19:23:00,
2013-05-02 15:28:00,55.0,42.2,30.22,North,8,16.0,20.0,62,0.00,,---,0.00,VWS V14.01,2013-05-02 19:28:00,
2013-05-02 15:30:00,61.6,45.3,30.22,NNE,12,6.0,12.0,55,0.00,,---,0.00,VWS V14.01,2013-05-02 19:30:00,
2013-05-02 15:33:00,55.3,42.9,30.22,North,359,9.0,16.0,63,0.00,,---,0.00,VWS V14.01,2013-05-02 19:33:00,
2013-05-02 15:39:00,55.5,42.7,30.22,North,350,11.0,16.0,62,0.00,,---,0.00,VWS V14.01,2013-05-02 19:39:00,
2013-05-02 15:40:00,61.3,45.0,30.22,North,355,9.0,15.0,55,0.00,,---,0.00,VWS V14.01,2013-05-02 19:40:00,
2013-05-02 15:44:00,55.6,42.4,30.22,North,359,11.0,16.0,61,0.00,,---,0.00,VWS V14.01,2013-05-02 19:44:00,
2013-05-02 15:49:00,55.5,42.7,30.21,North,350,9.0,17.0,62,0.00,,---,0.00,VWS V14.01,2013-05-02 19:49:00,
2013-05-02 15:50:00,60.3,44.6,30.22,NE,45,7.0,16.0,56,0.00,,---,0.00,VWS V14.01,2013-05-02 19:50:00,
2013-05-02 15:54:00,55.9,43.5,30.21,NNW,344,8.0,14.0,63,0.00,,---,0.00,VWS V14.01,2013-05-02 19:54:00,
2013-05-02 15:59:00,56.4,44.0,30.22,NNE,12,13.0,14.0,63,0.00,,---,0.00,VWS V14.01,2013-05-02 19:59:00,
2013-05-02 16:00:00,58.9,43.2,30.22,North,355,15.0,17.0,56,0.00,,---,0.00,VWS V14.01,2013-05-02 20:00:00,
2013-05-02 16:04:00,56.7,44.7,30.21,North,355,11.0,14.0,64,0.00,,---,0.00,VWS V14.01,2013-05-02 20:04:00,
2013-05-02 16:09:00,56.8,44.3,30.21,NNW,346,9.0,19.0,63,0.00,,---,0.00,VWS V14.01,2013-05-02 20:09:00,
2013-05-02 16:10:00,57.4,42.8,30.22,North,2,12.0,18.0,58,0.00,,---,0.00,VWS V14.01,2013-05-02 20:10:00,
2013-05-02 16:14:00,56.5,44.5,30.20,NNE,17,11.0,17.0,64,0.00,,---,0.00,VWS V14.01,2013-05-02 20:14:00,
2013-05-02 16:19:00,56.4,44.4,30.21,North,10,7.0,19.0,64,0.00,,---,0.00,VWS V14.01,2013-05-02 20:19:00,
2013-05-02 16:20:00,55.2,42.4,30.22,North,1,12.0,21.0,62,0.00,,---,0.00,VWS V14.01,2013-05-02 20:20:00,
2013-05-02 16:24:00,56.5,44.1,30.20,North,0,10.0,15.0,63,0.00,,---,0.00,VWS V14.01,2013-05-02 20:24:00,
2013-05-02 16:29:00,56.7,44.7,30.20,North,6,11.0,16.0,64,0.00,,---,0.00,VWS V14.01,2013-05-02 20:29:00,
2013-05-02 16:30:00,55.0,42.7,30.22,North,352,9.0,20.0,63,0.00,,---,0.00,VWS V14.01,2013-05-02 20:30:00,
2013-05-02 16:34:00,56.7,44.3,30.20,NNW,343,8.0,14.0,63,0.00,,---,0.00,VWS V14.01,2013-05-02 20:34:00,
2013-05-02 16:39:00,57.0,45.0,30.20,North,355,7.0,14.0,64,0.00,,---,0.00,VWS V14.01,2013-05-02 20:39:00,
2013-05-02 16:40:00,55.5,42.7,30.22,North,0,10.0,16.0,62,0.00,,---,0.00,VWS V14.01,2013-05-02 20:40:00,
2013-05-02 16:44:00,56.7,44.3,30.19,North,358,10.0,15.0,63,0.00,,---,0.00,VWS V14.01,2013-05-02 20:44:00,
2013-05-02 16:49:00,56.8,44.3,30.19,North,11,12.0,15.0,63,0.00,,---,0.00,VWS V14.01,2013-05-02 20:49:00,
2013-05-02 16:50:00,55.3,42.5,30.22,North,6,12.0,17.0,62,0.00,,---,0.00,VWS V14.01,2013-05-02 20:50:00,
2013-05-02 16:54:00,57.3,45.2,30.19,NNW,347,7.0,15.0,64,0.00,,---,0.00,VWS V14.01,2013-05-02 20:54:00,
2013-05-02 16:59:00,57.4,44.9,30.19,North,357,13.0,15.0,63,0.00,,---,0.00,VWS V14.01,2013-05-02 20:59:00,
2013-05-02 17:00:00,56.4,44.0,30.22,North,359,13.0,14.0,63,0.00,,---,0.00,VWS V14.01,2013-05-02 21:00:00,
2013-05-02 17:04:00,57.7,45.2,30.18,North,8,9.0,12.0,63,0.00,,---,0.00,VWS V14.01,2013-05-02 21:04:00,
2013-05-02 17:09:00,58.0,45.5,30.18,North,1,11.0,14.0,63,0.00,,---,0.00,VWS V14.01,2013-05-02 21:09:00,
2013-05-02 17:10:00,56.8,44.3,30.21,North,7,12.0,19.0,63,0.00,,---,0.00,VWS V14.01,2013-05-02 21:10:00,
2013-05-02 17:14:00,58.0,45.1,30.18,North,357,12.0,15.0,62,0.00,,---,0.00,VWS V14.01,2013-05-02 21:14:00,
2013-05-02 17:19:00,57.3,44.4,30.18,North,8,12.0,16.0,62,0.00,,---,0.00,VWS V14.01,2013-05-02 21:19:00,
2013-05-02 17:20:00,56.4,44.4,30.20,NNW,336,8.0,19.0,64,0.00,,---,0.00,VWS V14.01,2013-05-02 21:20:00,
2013-05-02 17:24:00,56.8,44.3,30.18,NNW,346,12.0,19.0,63,0.00,,---,0.00,VWS V14.01,2013-05-02 21:24:00,
2013-05-02 17:29:00,56.4,44.0,30.18,NNW,346,9.0,20.0,63,0.00,,---,0.00,VWS V14.01,2013-05-02 21:29:00,
2013-05-02 17:30:00,56.7,44.7,30.20,North,1,8.0,16.0,64,0.00,,---,0.00,VWS V14.01,2013-05-02 21:30:00,
2013-05-02 17:34:00,56.4,44.4,30.18,NNW,345,12.0,17.0,64,0.00,,---,0.00,VWS V14.01,2013-05-02 21:34:00,
2013-05-02 17:39:00,56.4,44.4,30.18,North,353,9.0,17.0,64,0.00,,---,0.00,VWS V14.01,2013-05-02 21:39:00,
2013-05-02 17:40:00,57.1,45.0,30.20,North,355,11.0,14.0,64,0.00,,---,0.00,VWS V14.01,2013-05-02 21:40:00,
2013-05-02 17:44:00,56.2,44.2,30.17,NNW,336,7.0,17.0,64,0.00,,---,0.00,VWS V14.01,2013-05-02 21:44:00,
2013-05-02 17:50:00,56.4,44.4,30.18,North,351,12.0,17.0,64,0.00,,---,0.00,VWS V14.01,2013-05-02 21:50:00,
2013-05-02 17:54:00,56.4,44.0,30.18,North,10,9.0,15.0,63,0.00,,---,0.00,VWS V14.01,2013-05-02 21:54:00,
2013-05-02 18:00:00,55.9,43.1,30.18,North,351,18.0,18.0,62,0.00,,---,0.00,VWS V14.01,2013-05-02 22:00:00,
2013-05-02 18:05:00,55.0,41.8,30.18,North,353,9.0,18.0,61,0.00,,---,0.00,VWS V14.01,2013-05-02 22:05:00,
2013-05-02 18:10:00,54.2,41.1,30.18,North,352,12.0,19.0,61,0.00,,---,0.00,VWS V14.01,2013-05-02 22:10:00,
2013-05-02 18:15:00,53.5,41.2,30.18,North,351,9.0,21.0,63,0.00,,---,0.00,VWS V14.01,2013-05-02 22:15:00,
2013-05-02 18:20:00,53.0,40.8,30.18,North,350,9.0,21.0,63,0.00,,---,0.00,VWS V14.01,2013-05-02 22:20:00,
2013-05-02 18:25:00,52.9,41.1,30.18,NNW,329,14.0,17.0,64,0.00,,---,0.00,VWS V14.01,2013-05-02 22:25:00,
2013-05-02 18:30:00,52.4,40.6,30.18,North,1,13.0,20.0,64,0.00,,---,0.00,VWS V14.01,2013-05-02 22:30:00,
2013-05-02 18:35:00,52.3,40.5,30.18,NNW,343,8.0,15.0,64,0.00,,---,0.00,VWS V14.01,2013-05-02 22:35:00,
2013-05-02 18:40:00,52.2,40.4,30.18,North,354,8.0,17.0,64,0.00,,---,0.00,VWS V14.01,2013-05-02 22:40:00,
2013-05-02 18:45:00,52.1,41.1,30.18,North,2,4.0,12.0,66,0.00,,---,0.00,VWS V14.01,2013-05-02 22:45:00,
2013-05-02 18:50:00,52.0,41.0,30.18,North,354,9.0,9.0,66,0.00,,---,0.00,VWS V14.01,2013-05-02 22:50:00,
2013-05-02 18:55:00,51.7,40.3,30.18,NNW,334,12.0,14.0,65,0.00,,---,0.00,VWS V14.01,2013-05-02 22:55:00,
2013-05-02 19:00:00,51.4,40.4,30.17,North,5,12.0,14.0,66,0.00,,---,0.00,VWS V14.01,2013-05-02 23:00:00,
2013-05-02 19:05:00,51.2,40.2,30.18,NNW,340,3.0,15.0,66,0.00,,---,0.00,VWS V14.01,2013-05-02 23:05:00,
2013-05-02 19:10:00,51.1,40.5,30.18,NNW,341,6.0,10.0,67,0.00,,---,0.00,VWS V14.01,2013-05-02 23:10:00,
2013-05-02 19:15:00,50.9,40.7,30.18,North,350,6.0,11.0,68,0.00,,---,0.00,VWS V14.01,2013-05-02 23:15:00,
2013-05-02 19:20:00,50.6,40.4,30.18,North,0,8.0,8.0,68,0.00,,---,0.00,VWS V14.01,2013-05-02 23:20:00,
2013-05-02 19:25:00,50.6,40.4,30.18,North,354,5.0,10.0,68,0.00,,---,0.00,VWS V14.01,2013-05-02 23:25:00,
2013-05-02 19:30:00,50.5,40.7,30.19,NNW,342,4.0,5.0,69,0.00,,---,0.00,VWS V14.01,2013-05-02 23:30:00,
2013-05-02 19:35:00,50.5,40.7,30.20,WSW,252,5.0,8.0,69,0.00,,---,0.00,VWS V14.01,2013-05-02 23:35:00,
2013-05-02 19:40:00,50.3,40.5,30.21,North,349,4.0,8.0,69,0.00,,---,0.00,VWS V14.01,2013-05-02 23:40:00,
2013-05-02 19:45:00,49.8,40.0,30.21,NNW,340,5.0,13.0,69,0.00,,---,0.00,VWS V14.01,2013-05-02 23:45:00,
2013-05-02 19:50:00,49.3,39.6,30.21,NW,308,6.0,12.0,69,0.00,,---,0.00,VWS V14.01,2013-05-02 23:50:00,
2013-05-02 19:55:00,48.6,38.9,30.22,NNW,335,8.0,21.0,69,0.00,,---,0.00,VWS V14.01,2013-05-02 23:55:00,
2013-05-02 20:00:00,47.8,38.1,30.21,North,353,5.0,8.0,69,0.00,,---,0.00,VWS V14.01,2013-05-03 00:00:00,
2013-05-02 20:05:00,47.1,37.8,30.22,NNE,14,12.0,16.0,70,0.00,,---,0.00,VWS V14.01,2013-05-03 00:05:00,
2013-05-02 20:10:00,46.4,37.5,30.22,NNW,344,13.0,14.0,71,0.00,,---,0.00,VWS V14.01,2013-05-03 00:10:00,
2013-05-02 20:15:00,46.0,36.8,30.22,NE,39,8.0,19.0,70,0.00,,---,0.00,VWS V14.01,2013-05-03 00:15:00,
2013-05-02 20:20:00,45.7,36.8,30.22,NNW,332,13.0,16.0,71,0.00,,---,0.00,VWS V14.01,2013-05-03 00:20:00,
2013-05-02 20:25:00,45.5,36.7,30.22,NNW,340,17.0,20.0,71,0.00,,---,0.00,VWS V14.01,2013-05-03 00:25:00,
2013-05-02 20:30:00,45.2,36.0,30.22,NNW,346,10.0,15.0,70,0.00,,---,0.00,VWS V14.01,2013-05-03 00:30:00,
2013-05-02 20:35:00,44.9,35.7,30.22,North,355,10.0,19.0,70,0.00,,---,0.00,VWS V14.01,2013-05-03 00:35:00,
2013-05-02 20:40:00,44.9,36.4,30.22,North,349,11.0,13.0,72,0.00,,---,0.00,VWS V14.01,2013-05-03 00:40:00,
2013-05-02 20:45:00,44.6,36.2,30.23,NNW,338,8.0,19.0,72,0.00,,---,0.00,VWS V14.01,2013-05-03 00:45:00,
2013-05-02 20:50:00,44.5,36.0,30.23,North,349,6.0,14.0,72,0.00,,---,0.00,VWS V14.01,2013-05-03 00:50:00,
2013-05-02 20:55:00,44.0,35.9,30.22,NNW,327,14.0,21.0,73,0.00,,---,0.00,VWS V14.01,2013-05-03 00:55:00,
2013-05-02 21:00:00,43.7,35.6,30.22,North,3,11.0,23.0,73,0.00,,---,0.00,VWS V14.01,2013-05-03 01:00:00,
2013-05-02 21:05:00,43.2,35.5,30.22,NNW,343,14.0,23.0,74,0.00,,---,0.00,VWS V14.01,2013-05-03 01:05:00,
2013-05-02 21:10:00,42.9,35.5,30.22,North,10,11.0,11.0,75,0.00,,---,0.00,VWS V14.01,2013-05-03 01:10:00,
2013-05-02 21:15:00,42.6,35.9,30.23,North,350,5.0,15.0,77,0.00,,---,0.00,VWS V14.01,2013-05-03 01:15:00,
2013-05-02 21:20:00,42.3,35.6,30.23,North,351,7.0,11.0,77,0.00,,---,0.00,VWS V14.01,2013-05-03 01:20:00,
2013-05-02 21:25:00,42.0,35.7,30.23,NNW,347,7.0,13.0,78,0.00,,---,0.00,VWS V14.01,2013-05-03 01:25:00,
2013-05-02 21:30:00,45.2,36.0,30.22,NNW,334,10.0,22.0,70,0.00,,---,0.00,VWS V14.01,2013-05-03 01:30:00,
2013-05-02 21:31:00,41.9,35.2,30.23,NNW,342,12.0,16.0,77,0.00,,---,0.00,VWS V14.01,2013-05-03 01:31:00,
2013-05-02 21:36:00,41.6,35.6,30.23,North,349,9.0,16.0,79,0.00,,---,0.00,VWS V14.01,2013-05-03 01:36:00,
2013-05-02 21:40:00,44.9,36.1,30.22,North,352,12.0,19.0,71,0.00,,---,0.00,VWS V14.01,2013-05-03 01:40:00,
2013-05-02 21:41:00,41.4,35.1,30.23,North,355,16.0,16.0,78,0.00,,---,0.00,VWS V14.01,2013-05-03 01:41:00,
2013-05-02 21:46:00,41.3,35.0,30.23,North,357,4.0,16.0,78,0.00,,---,0.00,VWS V14.01,2013-05-03 01:46:00,
2013-05-02 21:50:00,44.5,36.0,30.23,North,7,14.0,25.0,72,0.00,,---,0.00,VWS V14.01,2013-05-03 01:50:00,
2013-05-02 21:51:00,41.2,34.9,30.23,North,3,10.0,11.0,78,0.00,,---,0.00,VWS V14.01,2013-05-03 01:51:00,
2013-05-02 21:56:00,41.0,35.0,30.23,NW,313,4.0,14.0,79,0.00,,---,0.00,VWS V14.01,2013-05-03 01:56:00,
2013-05-02 22:00:00,43.7,36.0,30.22,NNE,12,10.0,21.0,74,0.00,,---,0.00,VWS V14.01,2013-05-03 02:00:00,
2013-05-02 22:01:00,40.9,35.2,30.23,North,1,6.0,11.0,80,0.00,,---,0.00,VWS V14.01,2013-05-03 02:01:00,
2013-05-02 22:06:00,40.7,35.0,30.23,NNW,344,7.0,11.0,80,0.00,,---,0.00,VWS V14.01,2013-05-03 02:06:00,
2013-05-02 22:10:00,42.9,35.5,30.22,NNE,16,8.0,23.0,75,0.00,,---,0.00,VWS V14.01,2013-05-03 02:10:00,
2013-05-02 22:11:00,40.5,34.8,30.23,NNW,337,7.0,10.0,80,0.00,,---,0.00,VWS V14.01,2013-05-03 02:11:00,
2013-05-02 22:16:00,40.3,34.6,30.22,North,356,8.0,11.0,80,0.00,,---,0.00,VWS V14.01,2013-05-03 02:16:00,
2013-05-02 22:20:00,42.3,35.6,30.23,NNW,338,6.0,17.0,77,0.00,,---,0.00,VWS V14.01,2013-05-03 02:20:00,
2013-05-02 22:21:00,40.2,34.5,30.23,NNW,330,6.0,13.0,80,0.00,,---,0.00,VWS V14.01,2013-05-03 02:21:00,
2013-05-02 22:26:00,40.0,34.7,30.22,North,353,8.0,16.0,81,0.00,,---,0.00,VWS V14.01,2013-05-03 02:26:00,
2013-05-02 22:30:00,41.9,35.5,30.23,North,1,14.0,18.0,78,0.00,,---,0.00,VWS V14.01,2013-05-03 02:30:00,
2013-05-02 22:31:00,39.9,34.5,30.22,North,352,10.0,12.0,81,0.00,,---,0.00,VWS V14.01,2013-05-03 02:31:00,
2013-05-02 22:36:00,39.6,34.3,30.22,NNE,13,7.0,14.0,81,0.00,,---,0.00,VWS V14.01,2013-05-03 02:36:00,
2013-05-02 22:40:00,41.6,35.3,30.23,NNW,348,7.0,16.0,78,0.00,,---,0.00,VWS V14.01,2013-05-03 02:40:00,
2013-05-02 22:41:00,39.6,34.3,30.23,North,358,5.0,8.0,81,0.00,,---,0.00,VWS V14.01,2013-05-03 02:41:00,
2013-05-02 22:46:00,39.5,34.2,30.22,North,352,7.0,13.0,81,0.00,,---,0.00,VWS V14.01,2013-05-03 02:46:00,
2013-05-02 22:50:00,41.2,34.9,30.23,North,10,9.0,16.0,78,0.00,,---,0.00,VWS V14.01,2013-05-03 02:50:00,
2013-05-02 22:51:00,39.5,34.2,30.23,North,354,4.0,9.0,81,0.00,,---,0.00,VWS V14.01,2013-05-03 02:51:00,
2013-05-02 22:56:00,39.4,34.4,30.22,NNE,15,11.0,14.0,82,0.00,,---,0.00,VWS V14.01,2013-05-03 02:56:00,
2013-05-02 23:00:00,40.9,34.9,30.23,NNW,341,11.0,14.0,79,0.00,,---,0.00,VWS V14.01,2013-05-03 03:00:00,
2013-05-02 23:01:00,39.3,34.3,30.22,NNW,331,9.0,12.0,82,0.00,,---,0.00,VWS V14.01,2013-05-03 03:01:00,
2013-05-02 23:06:00,39.2,34.5,30.22,NNW,343,3.0,12.0,83,0.00,,---,0.00,VWS V14.01,2013-05-03 03:06:00,
2013-05-02 23:10:00,40.6,34.9,30.23,North,350,3.0,12.0,80,0.00,,---,0.00,VWS V14.01,2013-05-03 03:10:00,
2013-05-02 23:11:00,39.0,34.3,30.23,NNE,14,5.0,11.0,83,0.00,,---,0.00,VWS V14.01,2013-05-03 03:11:00,
2013-05-02 23:16:00,39.0,34.3,30.23,NNW,338,5.0,11.0,83,0.00,,---,0.00,VWS V14.01,2013-05-03 03:16:00,
2013-05-02 23:20:00,40.2,34.8,30.22,North,355,9.0,15.0,81,0.00,,---,0.00,VWS V14.01,2013-05-03 03:20:00,
2013-05-02 23:21:00,39.0,34.3,30.24,NW,305,4.0,8.0,83,0.00,,---,0.00,VWS V14.01,2013-05-03 03:21:00,
2013-05-02 23:26:00,39.0,34.0,30.23,North,356,4.0,11.0,82,0.00,,---,0.00,VWS V14.01,2013-05-03 03:26:00,
2013-05-02 23:30:00,39.9,34.5,30.22,NNW,335,7.0,16.0,81,0.00,,---,0.00,VWS V14.01,2013-05-03 03:30:00,
2013-05-02 23:31:00,38.9,33.9,30.23,North,349,6.0,11.0,82,0.00,,---,0.00,VWS V14.01,2013-05-03 03:31:00,
2013-05-02 23:36:00,38.7,33.7,30.24,NNW,346,7.0,13.0,82,0.00,,---,0.00,VWS V14.01,2013-05-03 03:36:00,
2013-05-02 23:40:00,39.6,34.3,30.23,NNW,341,6.0,14.0,81,0.00,,---,0.00,VWS V14.01,2013-05-03 03:40:00,
2013-05-02 23:41:00,38.7,34.0,30.24,NNW,334,4.0,6.0,83,0.00,,---,0.00,VWS V14.01,2013-05-03 03:41:00,
2013-05-02 23:46:00,38.8,34.1,30.23,North,354,5.0,11.0,83,0.00,,---,0.00,VWS V14.01,2013-05-03 03:46:00,
2013-05-02 23:50:00,39.5,34.2,30.23,North,359,3.0,13.0,81,0.00,,---,0.00,VWS V14.01,2013-05-03 03:50:00,
2013-05-02 23:51:00,38.7,34.0,30.24,NNW,339,3.0,7.0,83,0.00,,---,0.00,VWS V14.01,2013-05-03 03:51:00,
2013-05-02 23:56:00,38.7,34.0,30.23,NNW,346,6.0,10.0,83,0.00,,---,0.00,VWS V14.01,2013-05-03 03:56:00,